Time;durP1;ratioP1;P1;durP2;ratioP2;P2;SDS_P1;SDS_P2;PMS_P1;PMS_P2;Temp;Humidity;BMP_temperature;BMP_pressure;BME280_temperature;BME280_humidity;BME280_pressure;Samples;Min_cycle;Max_cycle;Signal;HPM_P1;HPM_P2
2021/08/01 00:00:24;;;;;;;6.88;4.57;;;;;;;18.01;68.92;100843.22;5091792;28;20409;-54
2021/08/01 00:02:51;;;;;;;9.30;5.15;;;;;;;17.99;69.12;100840.00;5092386;28;20040;-53
2021/08/01 00:05:19;;;;;;;9.48;4.90;;;;;;;17.96;69.00;100840.59;5092366;28;20028;-52
2021/08/01 00:07:47;;;;;;;8.15;4.95;;;;;;;17.92;69.57;100836.88;5073737;28;20040;-50
2021/08/01 00:10:14;;;;;;;8.88;4.68;;;;;;;17.89;69.73;100840.25;5092375;28;20040;-53
2021/08/01 00:12:43;;;;;;;7.72;5.20;;;;;;;17.86;69.86;100841.69;5092260;28;20060;-54
2021/08/01 00:15:12;;;;;;;10.07;5.45;;;;;;;17.86;70.02;100847.19;5073677;28;20044;-54
2021/08/01 00:17:40;;;;;;;8.02;5.07;;;;;;;17.85;70.27;100833.75;5092285;28;20040;-53
2021/08/01 00:20:08;;;;;;;7.47;5.00;;;;;;;17.84;70.23;100843.94;5092256;28;20051;-52
2021/08/01 00:22:36;;;;;;;6.70;4.22;;;;;;;17.84;69.92;100843.94;5091925;28;20052;-55
2021/08/01 00:25:05;;;;;;;7.18;4.60;;;;;;;17.83;70.05;100836.81;5092345;28;20372;-53
2021/08/01 00:27:35;;;;;;;7.80;4.70;;;;;;;17.83;70.20;100833.25;5091974;28;20074;-54
2021/08/01 00:30:05;;;;;;;8.13;4.55;;;;;;;17.83;69.98;100836.81;5091575;28;20087;-52
2021/08/01 00:32:32;;;;;;;7.20;4.68;;;;;;;17.83;70.09;100836.81;5092158;28;20036;-50
2021/08/01 00:35:00;;;;;;;9.40;5.22;;;;;;;17.84;69.83;100835.69;5078052;28;20497;-57
2021/08/01 00:37:28;;;;;;;7.63;5.10;;;;;;;17.86;69.79;100827.91;5092040;28;20056;-55
2021/08/01 00:39:55;;;;;;;7.15;4.40;;;;;;;17.86;69.58;100835.38;5092156;28;20458;-56
2021/08/01 00:42:23;;;;;;;7.72;5.00;;;;;;;17.82;69.74;100835.22;5091754;28;20044;-55
2021/08/01 00:44:51;;;;;;;8.10;4.63;;;;;;;17.82;69.67;100826.94;5091319;28;20403;-57
2021/08/01 00:47:18;;;;;;;6.53;4.63;;;;;;;17.80;69.86;100825.59;5092150;28;20088;-54
2021/08/01 00:49:46;;;;;;;9.10;5.18;;;;;;;17.78;70.03;100825.91;5074038;28;20123;-53
2021/08/01 00:52:15;;;;;;;6.97;4.35;;;;;;;17.73;70.17;100826.03;5073924;28;20068;-55
2021/08/01 00:54:42;;;;;;;7.43;4.53;;;;;;;17.73;70.33;100819.72;5073823;28;20046;-56
2021/08/01 00:57:11;;;;;;;8.60;4.63;;;;;;;17.73;70.26;100816.97;5073736;28;20101;-53
2021/08/01 00:59:40;;;;;;;7.22;5.00;;;;;;;17.73;70.08;100814.22;5073382;28;20402;-54
2021/08/01 01:02:18;;;;;;;7.75;4.40;;;;;;;17.73;70.07;100812.25;5090530;28;20035;-55
2021/08/01 01:04:58;;;;;;;5.90;4.35;;;;;;;17.71;70.15;100822.78;5073761;28;20072;-57
2021/08/01 01:07:52;;;;;;;11.57;5.18;;;;;;;17.71;70.06;100820.03;5061534;28;20131;-53
2021/08/01 01:10:42;;;;;;;6.45;3.85;;;;;;;17.72;70.16;100815.31;5091467;28;20098;-56
2021/08/01 01:13:38;;;;;;;6.22;4.13;;;;;;;17.70;70.25;100810.13;5091370;28;20570;-56
2021/08/01 01:16:05;;;;;;;6.63;4.03;;;;;;;17.70;70.10;100809.31;5073747;28;20036;-56
2021/08/01 01:18:39;;;;;;;8.07;4.38;;;;;;;17.68;70.38;100806.88;5058212;28;20044;-56
2021/08/01 01:21:25;;;;;;;6.35;4.20;;;;;;;17.65;70.18;100804.75;5060946;28;20067;-56
2021/08/01 01:24:00;;;;;;;5.82;4.13;;;;;;;17.64;70.42;100800.38;5095610;28;20079;-50
2021/08/01 01:27:02;;;;;;;8.68;5.00;;;;;;;17.61;70.44;100812.03;5082269;28;20085;-55
2021/08/01 01:29:57;;;;;;;6.38;4.68;;;;;;;17.59;70.64;100811.53;5077114;28;20040;-55
2021/08/01 01:32:51;;;;;;;6.82;4.47;;;;;;;17.55;70.91;100802.28;5077434;28;20143;-55
2021/08/01 01:35:20;;;;;;;7.18;4.30;;;;;;;17.55;70.87;100796.75;5094910;28;20040;-51
2021/08/01 01:37:52;;;;;;;6.60;4.22;;;;;;;17.54;71.23;100797.91;5093470;28;20490;-53
2021/08/01 01:40:40;;;;;;;8.07;4.90;;;;;;;17.53;71.33;100799.81;5068977;28;20453;-54
2021/08/01 01:43:30;;;;;;;6.38;4.57;;;;;;;17.52;71.62;100800.16;5076530;28;20123;-53
2021/08/01 01:45:59;;;;;;;7.85;4.45;;;;;;;17.50;71.52;100794.13;5094393;28;20050;-54
2021/08/01 01:48:27;;;;;;;6.18;4.35;;;;;;;17.48;71.63;100799.16;5077039;28;20498;-54
2021/08/01 01:50:55;;;;;;;6.53;4.47;;;;;;;17.45;71.70;100793.13;5076984;28;20052;-51
2021/08/01 01:53:24;;;;;;;6.93;4.70;;;;;;;17.44;71.70;100790.72;5094404;28;20136;-57
2021/08/01 01:55:52;;;;;;;7.00;3.88;;;;;;;17.44;71.96;100796.22;5059908;28;20047;-54
2021/08/01 01:58:20;;;;;;;7.35;4.63;;;;;;;17.42;72.06;100792.97;5076685;28;20066;-56
2021/08/01 02:00:47;;;;;;;7.45;4.60;;;;;;;17.39;72.09;100788.06;5076770;28;20072;-56
2021/08/01 02:03:17;;;;;;;6.50;4.20;;;;;;;17.38;72.29;100779.00;5076471;28;20058;-54
2021/08/01 02:06:05;;;;;;;8.80;4.97;;;;;;;17.36;72.22;100784.00;5011949;28;20046;-52
2021/08/01 02:08:46;;;;;;;9.25;5.35;;;;;;;17.32;72.55;100782.19;5012270;28;20046;-54
2021/08/01 02:11:52;;;;;;;6.57;4.85;;;;;;;17.30;72.53;100785.28;4995575;28;20054;-52
2021/08/01 02:14:43;;;;;;;7.25;4.38;;;;;;;17.30;72.62;100779.78;4995864;28;20042;-55
2021/08/01 02:17:14;;;;;;;8.45;5.10;;;;;;;17.30;73.00;100779.78;5011912;28;20567;-55
2021/08/01 02:19:44;;;;;;;6.40;4.35;;;;;;;17.31;72.54;100775.06;4979959;28;20041;-52
2021/08/01 02:22:14;;;;;;;7.50;4.80;;;;;;;17.30;72.86;100774.25;4988151;28;20088;-54
2021/08/01 02:24:45;;;;;;;7.70;4.75;;;;;;;17.30;72.89;100782.53;4995770;28;20509;-53
2021/08/01 02:27:12;;;;;;;8.85;5.05;;;;;;;17.29;72.86;100778.13;5011702;28;20056;-56
2021/08/01 02:29:40;;;;;;;8.20;5.65;;;;;;;17.28;72.85;100781.22;5011251;28;20098;-56
2021/08/01 02:32:09;;;;;;;8.25;4.80;;;;;;;17.24;72.77;100784.59;4995242;28;20046;-55
2021/08/01 02:34:39;;;;;;;8.45;5.00;;;;;;;17.23;72.78;100782.97;5011655;28;20088;-56
2021/08/01 02:37:09;;;;;;;9.90;5.45;;;;;;;17.21;73.07;100779.69;4995086;28;20143;-54
2021/08/01 02:39:37;;;;;;;9.55;6.38;;;;;;;17.22;72.94;100788.75;4995293;28;20092;-52
2021/08/01 02:42:07;;;;;;;12.10;5.75;;;;;;;17.19;73.09;100790.22;5013028;28;20583;-54
2021/08/01 02:44:37;;;;;;;10.82;5.80;;;;;;;17.20;73.24;100788.28;5059332;28;20093;-53
2021/08/01 02:47:08;;;;;;;12.32;5.90;;;;;;;17.21;72.96;100784.41;5075718;28;20476;-58
2021/08/01 02:49:40;;;;;;;9.43;5.68;;;;;;;17.24;72.51;100781.00;5076203;28;20032;-54
2021/08/01 02:52:12;;;;;;;9.30;5.50;;;;;;;17.18;73.11;100785.03;5058729;28;20414;-53
2021/08/01 02:54:40;;;;;;;10.18;5.32;;;;;;;17.15;73.40;100785.63;5035402;28;20047;-56
2021/08/01 02:57:12;;;;;;;9.63;5.72;;;;;;;17.16;72.98;100776.28;5055513;28;20064;-57
2021/08/01 02:59:41;;;;;;;10.60;6.03;;;;;;;17.16;72.82;100779.84;5055470;28;20108;-57
2021/08/01 03:02:10;;;;;;;8.63;5.32;;;;;;;17.17;73.11;100786.16;5055571;28;20052;-57
2021/08/01 03:04:46;;;;;;;10.00;5.85;;;;;;;17.18;72.52;100782.28;5055292;28;20044;-57
2021/08/01 03:07:14;;;;;;;8.48;5.35;;;;;;;17.14;72.92;100779.31;5072961;28;20041;-54
2021/08/01 03:09:44;;;;;;;9.10;5.80;;;;;;;17.15;72.80;100782.88;5054807;28;20052;-53
2021/08/01 03:12:16;;;;;;;10.13;6.05;;;;;;;17.13;72.72;100785.16;5073204;28;20060;-56
2021/08/01 03:14:45;;;;;;;9.48;5.68;;;;;;;17.11;72.88;100779.97;5071637;28;20048;-53
2021/08/01 03:17:13;;;;;;;7.72;5.07;;;;;;;17.09;73.16;100775.91;5072669;28;20056;-50
2021/08/01 03:19:41;;;;;;;8.55;4.95;;;;;;;17.08;72.60;100788.00;5055152;28;20131;-55
2021/08/01 03:22:12;;;;;;;10.18;5.88;;;;;;;17.06;72.80;100784.78;5059071;28;20037;-53
2021/08/01 03:24:41;;;;;;;7.90;4.88;;;;;;;17.06;73.01;100782.03;5054509;28;20048;-52
2021/08/01 03:27:13;;;;;;;8.95;5.90;;;;;;;17.08;72.96;100785.25;5054816;28;20398;-51
2021/08/01 03:29:43;;;;;;;11.23;5.68;;;;;;;17.06;72.60;100782.03;5054975;28;20044;-57
2021/08/01 03:32:20;;;;;;;8.48;5.28;;;;;;;17.07;72.92;100787.22;5072425;28;20051;-54
2021/08/01 03:34:52;;;;;;;9.82;5.10;;;;;;;17.08;72.79;100793.53;5054832;28;20403;-49
2021/08/01 03:37:27;;;;;;;8.00;4.70;;;;;;;17.07;72.79;100786.41;5072214;28;20163;-56
2021/08/01 03:40:14;;;;;;;8.95;5.25;;;;;;;17.09;72.70;100789.66;5072656;28;20049;-56
2021/08/01 03:42:42;;;;;;;11.60;6.25;;;;;;;17.08;72.46;100790.78;5054015;28;20041;-56
2021/08/01 03:45:11;;;;;;;10.20;4.90;;;;;;;17.05;72.73;100786.72;5072311;28;20044;-55
2021/08/01 03:47:39;;;;;;;7.63;5.13;;;;;;;17.02;72.55;100790.91;5072306;28;20044;-53
2021/08/01 03:50:08;;;;;;;9.98;5.70;;;;;;;17.03;72.75;100789.78;5072615;28;20051;-51
2021/08/01 03:52:36;;;;;;;11.60;6.07;;;;;;;17.03;72.73;100781.53;5075216;28;20056;-50
2021/08/01 03:55:04;;;;;;;10.38;5.63;;;;;;;17.00;72.69;100790.41;5074390;28;20032;-51
2021/08/01 03:57:32;;;;;;;8.80;5.75;;;;;;;16.99;72.58;100788.78;5092497;28;20036;-54
2021/08/01 04:00:00;;;;;;;8.77;4.68;;;;;;;16.99;72.51;100791.53;5092121;28;20040;-54
2021/08/01 04:02:27;;;;;;;8.85;5.35;;;;;;;17.01;72.64;100789.28;5092140;28;20044;-53
2021/08/01 04:04:55;;;;;;;8.70;5.15;;;;;;;17.00;72.28;100795.09;5092101;28;20043;-56
2021/08/01 04:07:22;;;;;;;7.90;4.85;;;;;;;16.97;72.74;100799.28;5092026;28;20052;-53
2021/08/01 04:09:50;;;;;;;10.30;6.05;;;;;;;16.95;72.75;100801.53;5092207;28;20078;-53
2021/08/01 04:12:19;;;;;;;11.32;6.20;;;;;;;16.94;72.67;100804.59;5074700;28;20044;-54
2021/08/01 04:14:47;;;;;;;8.15;4.90;;;;;;;16.91;72.85;100795.03;5092117;28;20044;-54
2021/08/01 04:17:18;;;;;;;8.98;5.40;;;;;;;16.92;72.87;100804.09;5092682;28;20453;-57
2021/08/01 04:19:46;;;;;;;8.95;5.38;;;;;;;16.91;73.03;100803.28;5092405;28;20072;-56
2021/08/01 04:22:15;;;;;;;9.32;5.82;;;;;;;16.91;72.76;100802.47;5092430;28;20487;-57
2021/08/01 04:24:42;;;;;;;8.93;5.43;;;;;;;16.89;73.11;100796.47;5092698;28;20048;-57
2021/08/01 04:27:10;;;;;;;12.05;6.35;;;;;;;16.87;73.00;100795.97;5091930;28;20036;-56
2021/08/01 04:29:37;;;;;;;10.18;6.10;;;;;;;16.82;73.03;100799.66;5091790;28;20044;-55
2021/08/01 04:32:05;;;;;;;10.52;5.95;;;;;;;16.82;73.11;100796.91;5092246;28;20047;-55
2021/08/01 04:34:33;;;;;;;10.75;5.50;;;;;;;16.80;73.50;100799.94;5092046;28;20075;-52
2021/08/01 04:37:01;;;;;;;12.43;6.80;;;;;;;16.76;73.26;100798.94;5091774;28;20044;-55
2021/08/01 04:39:28;;;;;;;12.55;6.85;;;;;;;16.76;73.42;100800.84;5092317;28;20059;-53
2021/08/01 04:41:56;;;;;;;10.82;5.68;;;;;;;16.76;73.47;100798.94;5092091;28;20055;-52
2021/08/01 04:44:23;;;;;;;8.90;5.68;;;;;;;16.75;73.84;100797.28;5091779;28;20046;-54
2021/08/01 04:46:51;;;;;;;10.40;6.32;;;;;;;16.77;73.21;100805.25;5091776;28;20414;-53
2021/08/01 04:49:18;;;;;;;13.50;7.70;;;;;;;16.76;73.99;100809.09;5091827;28;20059;-54
2021/08/01 04:51:46;;;;;;;18.90;11.23;;;;;;;16.74;73.99;100803.09;5091969;28;20040;-55
2021/08/01 04:54:13;;;;;;;17.65;10.93;;;;;;;16.70;74.32;100804.84;5093920;28;20134;-53
2021/08/01 04:56:45;;;;;;;23.65;13.20;;;;;;;16.71;74.27;100801.78;5095952;28;20047;-54
2021/08/01 04:59:13;;;;;;;22.20;13.65;;;;;;;16.71;74.49;100800.97;5095680;28;20043;-50
2021/08/01 05:01:41;;;;;;;20.83;11.15;;;;;;;16.74;75.02;100800.34;5095694;28;20067;-56
2021/08/01 05:04:10;;;;;;;24.23;13.82;;;;;;;16.74;74.61;100789.34;5095363;28;20078;-53
2021/08/01 05:06:38;;;;;;;23.85;13.48;;;;;;;16.74;74.53;100786.59;5095518;28;20036;-57
2021/08/01 05:09:07;;;;;;;24.83;15.20;;;;;;;16.65;75.08;100792.03;5086728;28;20045;-52
2021/08/01 05:11:35;;;;;;;27.17;15.50;;;;;;;16.64;74.89;100790.38;5083404;28;20039;-56
2021/08/01 05:14:02;;;;;;;28.85;15.35;;;;;;;16.61;75.31;100791.81;5074888;28;20479;-58
2021/08/01 05:16:33;;;;;;;27.13;14.88;;;;;;;16.63;75.15;100799.78;5074448;28;20403;-56
2021/08/01 05:19:01;;;;;;;26.25;15.60;;;;;;;16.65;75.15;100802.22;5074417;28;20040;-54
2021/08/01 05:21:28;;;;;;;21.25;12.20;;;;;;;16.64;75.57;100800.56;5074502;28;20044;-56
2021/08/01 05:23:56;;;;;;;23.95;14.70;;;;;;;16.66;75.22;100804.66;5074474;28;20391;-59
2021/08/01 05:26:23;;;;;;;34.17;17.73;;;;;;;16.68;75.41;100809.84;5074165;28;20032;-59
2021/08/01 05:28:51;;;;;;;28.73;16.13;;;;;;;16.80;74.89;100799.16;5069948;28;20053;-60
2021/08/01 05:31:19;;;;;;;38.85;23.25;;;;;;;16.69;75.31;100808.72;5085171;28;20068;-55
2021/08/01 05:33:46;;;;;;;32.83;19.77;;;;;;;16.64;75.86;100801.38;5076207;28;20483;-59
2021/08/01 05:36:14;;;;;;;34.10;20.50;;;;;;;16.64;76.14;100795.06;5074485;28;20427;-54
2021/08/01 05:38:42;;;;;;;37.78;21.00;;;;;;;16.65;75.68;100796.72;5074162;28;20044;-55
2021/08/01 05:41:14;;;;;;;32.92;20.65;;;;;;;16.56;76.24;100794.69;5074064;28;20390;-53
2021/08/01 05:43:42;;;;;;;39.25;22.48;;;;;;;16.44;76.54;100791.66;5078850;28;20098;-53
2021/08/01 05:46:11;;;;;;;37.97;22.92;;;;;;;16.38;76.98;100795.66;5091597;28;20486;-54
2021/08/01 05:48:39;;;;;;;38.67;23.73;;;;;;;16.38;77.12;100793.72;5094118;28;20522;-56
2021/08/01 05:51:07;;;;;;;35.40;22.38;;;;;;;16.49;76.74;100790.72;5094380;28;20402;-54
2021/08/01 05:53:35;;;;;;;32.67;19.90;;;;;;;16.56;76.17;100783.69;5094275;28;20048;-56
2021/08/01 05:56:10;;;;;;;26.95;17.98;;;;;;;16.52;76.31;100788.16;5094383;28;20479;-57
2021/08/01 05:58:38;;;;;;;27.23;15.73;;;;;;;16.73;75.58;100787.72;5087625;28;20044;-56
2021/08/01 06:01:14;;;;;;;29.60;19.95;;;;;;;16.65;75.37;100791.22;5088354;28;20491;-54
2021/08/01 06:03:43;;;;;;;27.33;17.20;;;;;;;16.72;75.37;100788.84;5073880;28;20487;-53
2021/08/01 06:06:15;;;;;;;30.48;19.83;;;;;;;16.68;75.21;100787.84;5072644;28;20041;-50
2021/08/01 06:08:45;;;;;;;23.95;15.93;;;;;;;16.73;74.69;100784.97;5073778;28;20395;-51
2021/08/01 06:11:13;;;;;;;29.42;19.55;;;;;;;16.63;75.31;100786.00;5073808;28;20043;-54
2021/08/01 06:13:41;;;;;;;23.92;15.48;;;;;;;16.61;75.50;100786.31;5071770;28;20037;-55
2021/08/01 06:16:10;;;;;;;20.10;12.32;;;;;;;16.71;75.00;100789.97;5080995;28;20060;-55
2021/08/01 06:18:41;;;;;;;24.95;16.70;;;;;;;16.68;75.17;100790.59;5073293;28;20115;-54
2021/08/01 06:21:16;;;;;;;25.13;15.93;;;;;;;16.67;75.05;100799.94;5073654;28;20380;-56
2021/08/01 06:23:49;;;;;;;24.75;16.77;;;;;;;16.57;75.50;100790.84;5071378;28;20140;-52
2021/08/01 06:26:19;;;;;;;26.88;18.38;;;;;;;16.54;75.12;100799.69;5072679;28;20124;-55
2021/08/01 06:28:47;;;;;;;18.13;11.07;;;;;;;16.55;75.42;100793.06;5070710;28;20056;-57
2021/08/01 06:31:14;;;;;;;23.00;14.38;;;;;;;16.58;75.54;100805.38;5069822;28;20385;-52
2021/08/01 06:33:43;;;;;;;22.45;14.18;;;;;;;16.59;75.31;100804.25;5075476;28;20040;-56
2021/08/01 06:36:12;;;;;;;24.77;16.20;;;;;;;16.59;75.50;100812.50;5071965;28;20052;-55
2021/08/01 06:38:40;;;;;;;24.45;15.98;;;;;;;16.64;75.25;100820.66;5070426;28;20048;-54
2021/08/01 06:41:08;;;;;;;22.95;14.70;;;;;;;16.61;75.69;100813.81;5077123;28;20048;-56
2021/08/01 06:43:36;;;;;;;23.25;14.10;;;;;;;16.61;75.26;100813.81;5076661;28;20040;-57
2021/08/01 06:46:04;;;;;;;17.23;10.20;;;;;;;16.62;75.54;100814.66;5086555;28;20052;-56
2021/08/01 06:48:32;;;;;;;29.70;19.45;;;;;;;16.54;75.95;100818.94;5074472;28;20048;-51
2021/08/01 06:51:01;;;;;;;27.83;20.17;;;;;;;16.49;76.13;100821.00;5076161;28;20051;-54
2021/08/01 06:53:30;;;;;;;32.58;21.10;;;;;;;16.51;75.84;100819.56;5084063;28;20060;-59
2021/08/01 06:55:57;;;;;;;24.42;16.83;;;;;;;16.49;76.10;100827.28;5093429;28;20040;-58
2021/08/01 06:58:25;;;;;;;19.27;12.02;;;;;;;16.60;75.88;100823.22;5092918;28;20052;-58
2021/08/01 07:00:54;;;;;;;29.67;20.45;;;;;;;16.69;75.18;100820.56;5092360;28;20054;-59
2021/08/01 07:03:21;;;;;;;26.15;17.67;;;;;;;16.72;75.36;100824.63;5093025;28;20052;-57
2021/08/01 07:05:56;;;;;;;23.58;14.65;;;;;;;16.76;75.10;100823.69;5075938;28;20052;-57
2021/08/01 07:08:24;;;;;;;15.27;9.77;;;;;;;16.83;74.31;100815.03;5092318;28;20102;-58
2021/08/01 07:10:51;;;;;;;19.73;12.85;;;;;;;16.94;74.37;100823.88;5093108;28;20036;-58
2021/08/01 07:13:19;;;;;;;20.33;13.32;;;;;;;16.84;74.26;100816.66;5092594;28;20476;-58
2021/08/01 07:15:48;;;;;;;25.27;18.23;;;;;;;16.82;74.38;100818.91;5092188;28;20410;-58
2021/08/01 07:18:16;;;;;;;26.20;18.73;;;;;;;16.77;74.50;100817.06;5092969;28;20044;-57
2021/08/01 07:20:43;;;;;;;27.30;18.00;;;;;;;16.79;74.92;100827.81;5074739;28;20040;-58
2021/08/01 07:23:11;;;;;;;23.40;15.27;;;;;;;16.87;74.74;100820.75;5093006;28;20052;-57
2021/08/01 07:25:39;;;;;;;27.35;12.63;;;;;;;16.92;74.24;100828.88;5092908;28;20032;-58
2021/08/01 07:28:06;;;;;;;24.90;16.23;;;;;;;16.82;74.55;100830.72;5092261;28;20040;-61
2021/08/01 07:30:34;;;;;;;23.77;15.20;;;;;;;16.76;74.48;100825.63;5092250;28;20110;-60
2021/08/01 07:33:02;;;;;;;24.30;14.75;;;;;;;16.72;74.47;100836.44;5092995;28;20402;-60
2021/08/01 07:35:29;;;;;;;23.88;12.30;;;;;;;16.71;74.45;100836.75;5092867;28;20089;-61
2021/08/01 07:37:57;;;;;;;20.20;14.07;;;;;;;16.70;74.78;100837.88;5092867;28;20044;-61
2021/08/01 07:40:24;;;;;;;20.80;14.00;;;;;;;16.72;74.45;100836.44;5057759;28;20046;-61
2021/08/01 07:42:52;;;;;;;21.95;12.45;;;;;;;16.84;74.10;100838.69;5092493;28;20043;-61
2021/08/01 07:45:24;;;;;;;21.38;12.48;;;;;;;16.89;73.80;100837.75;5092156;28;20048;-61
2021/08/01 07:47:52;;;;;;;16.95;11.93;;;;;;;16.82;73.89;100844.50;5092504;28;20032;-62
2021/08/01 07:50:21;;;;;;;19.80;12.77;;;;;;;16.81;73.91;100842.03;5092661;28;20052;-61
2021/08/01 07:52:49;;;;;;;23.75;9.55;;;;;;;16.88;74.04;100834.16;5092152;28;20064;-60
2021/08/01 07:55:16;;;;;;;23.25;11.73;;;;;;;16.87;74.00;100838.06;5092801;28;20036;-60
2021/08/01 07:57:44;;;;;;;24.48;14.30;;;;;;;17.10;73.23;100841.66;5091983;28;20048;-60
2021/08/01 08:00:14;;;;;;;23.92;11.35;;;;;;;17.08;73.28;100837.56;5092414;28;20043;-60
2021/08/01 08:02:44;;;;;;;23.95;11.52;;;;;;;17.06;73.38;100834.34;5092400;28;20609;-57
2021/08/01 08:05:14;;;;;;;24.55;14.95;;;;;;;16.99;73.80;100834.75;5092267;28;20040;-61
2021/08/01 08:07:42;;;;;;;19.67;13.25;;;;;;;16.93;74.39;100825.81;5092515;28;20068;-61
2021/08/01 08:10:10;;;;;;;22.55;12.60;;;;;;;16.93;74.32;100836.00;5092071;28;20036;-61
2021/08/01 08:12:38;;;;;;;18.73;10.55;;;;;;;16.87;74.65;100832.56;5091826;28;20495;-55
2021/08/01 08:15:08;;;;;;;24.10;13.57;;;;;;;16.86;74.63;100833.69;5091853;28;20040;-59
2021/08/01 08:17:36;;;;;;;23.65;12.32;;;;;;;16.90;74.24;100836.63;5074176;28;20054;-59
2021/08/01 08:20:05;;;;;;;23.38;12.13;;;;;;;16.93;74.18;100836.84;5092153;28;20044;-60
2021/08/01 08:22:33;;;;;;;23.17;13.80;;;;;;;16.94;74.34;100837.63;5092129;28;20044;-60
2021/08/01 08:25:03;;;;;;;26.48;13.27;;;;;;;17.12;73.78;100833.06;5074416;28;20058;-60
2021/08/01 08:27:31;;;;;;;20.15;12.60;;;;;;;17.04;74.41;100845.66;5091554;28;20510;-60
2021/08/01 08:29:58;;;;;;;22.90;13.82;;;;;;;17.02;74.29;100845.94;5095535;28;20113;-59
2021/08/01 08:32:26;;;;;;;23.20;12.88;;;;;;;17.10;73.89;100832.56;5096468;28;20040;-60
2021/08/01 08:35:00;;;;;;;25.52;16.27;;;;;;;17.08;74.28;100837.56;5096526;28;20543;-61
2021/08/01 08:37:27;;;;;;;21.95;13.52;;;;;;;17.04;74.46;100838.19;5090402;28;20045;-59
2021/08/01 08:39:55;;;;;;;25.08;15.43;;;;;;;16.97;75.03;100837.00;5088656;28;20046;-59
2021/08/01 08:42:25;;;;;;;24.70;14.73;;;;;;;17.02;74.75;100834.94;5095869;28;20063;-59
2021/08/01 08:44:52;;;;;;;23.92;15.60;;;;;;;17.10;74.67;100838.06;5078159;28;20097;-59
2021/08/01 08:47:20;;;;;;;17.92;10.38;;;;;;;17.09;74.30;100839.22;5078442;28;20378;-59
2021/08/01 08:49:48;;;;;;;24.02;16.05;;;;;;;17.08;74.55;100843.06;5095737;28;20047;-60
2021/08/01 08:52:17;;;;;;;24.83;17.52;;;;;;;17.02;75.04;100845.16;5078267;28;20043;-59
2021/08/01 08:54:51;;;;;;;23.80;15.20;;;;;;;17.00;74.59;100848.22;5095284;28;20059;-60
2021/08/01 08:57:27;;;;;;;19.23;11.73;;;;;;;17.08;74.28;100848.59;5077699;28;20048;-61
2021/08/01 09:00:00;;;;;;;22.02;11.32;;;;;;;17.14;73.89;100848.16;5095636;28;20040;-60
2021/08/01 09:02:28;;;;;;;21.60;14.30;;;;;;;17.23;73.81;100846.28;5096080;28;20062;-61
2021/08/01 09:04:57;;;;;;;23.55;15.13;;;;;;;17.22;73.46;100854.84;5077559;28;20537;-62
2021/08/01 09:07:25;;;;;;;21.52;13.40;;;;;;;17.25;73.73;100843.25;5096063;28;20044;-61
2021/08/01 09:09:53;;;;;;;20.10;11.63;;;;;;;17.36;72.96;100844.59;5095204;28;20052;-60
2021/08/01 09:12:21;;;;;;;21.00;13.32;;;;;;;17.37;73.23;100848.19;5095335;28;20044;-61
2021/08/01 09:15:07;;;;;;;21.55;13.68;;;;;;;17.44;72.52;100851.31;5095275;28;20040;-60
2021/08/01 09:17:39;;;;;;;19.33;11.57;;;;;;;17.40;72.87;100845.59;5095403;28;20044;-61
2021/08/01 09:20:18;;;;;;;14.55;8.07;;;;;;;17.51;72.11;100848.09;5095211;28;20043;-60
2021/08/01 09:23:06;;;;;;;16.05;10.13;;;;;;;17.56;72.04;100853.50;5095321;28;20082;-60
2021/08/01 09:25:36;;;;;;;24.58;16.63;;;;;;;17.54;72.65;100853.81;5095065;28;20040;-59
2021/08/01 09:28:18;;;;;;;18.13;12.27;;;;;;;17.69;71.50;100852.59;5095212;28;20047;-60
2021/08/01 09:30:52;;;;;;;28.80;17.15;;;;;;;17.67;72.50;100852.09;5063695;28;20418;-59
2021/08/01 09:33:50;;;;;;;16.67;10.25;;;;;;;17.85;70.94;100844.78;5095354;28;20071;-61
2021/08/01 09:36:20;;;;;;;17.38;10.82;;;;;;;18.00;70.85;100847.13;5084822;28;20414;-60
2021/08/01 09:38:51;;;;;;;21.77;13.35;;;;;;;18.03;71.46;100848.41;5076723;28;20043;-56
2021/08/01 09:41:24;;;;;;;24.75;16.23;;;;;;;17.97;71.18;100842.25;5094916;28;20040;-59
2021/08/01 09:43:51;;;;;;;24.65;15.90;;;;;;;17.93;71.34;100834.91;5094803;28;20032;-59
2021/08/01 09:46:20;;;;;;;15.15;8.75;;;;;;;18.14;70.42;100841.50;5094553;28;20050;-55
2021/08/01 09:49:17;;;;;;;25.58;16.85;;;;;;;18.11;70.26;100844.88;5094998;28;20050;-61
2021/08/01 09:51:46;;;;;;;15.88;8.80;;;;;;;18.12;70.19;100849.28;5094770;28;20036;-61
2021/08/01 09:54:15;;;;;;;13.13;7.07;;;;;;;18.16;69.83;100849.44;5094298;28;20418;-61
2021/08/01 09:57:16;;;;;;;20.10;14.48;;;;;;;18.16;70.36;100850.28;5094694;28;20106;-59
2021/08/01 09:59:44;;;;;;;21.75;14.93;;;;;;;18.11;72.12;100847.63;5076430;28;20048;-59
2021/08/01 10:02:11;;;;;;;26.42;17.77;;;;;;;18.00;72.05;100851.81;5094354;28;20051;-59
2021/08/01 10:04:42;;;;;;;18.80;12.52;;;;;;;18.10;71.33;100851.53;5056175;28;20052;-59
2021/08/01 10:07:14;;;;;;;20.70;13.85;;;;;;;18.15;71.38;100856.09;5075817;28;20514;-59
2021/08/01 10:09:47;;;;;;;15.38;8.45;;;;;;;18.36;69.24;100845.31;5094421;28;20037;-59
2021/08/01 10:12:16;;;;;;;21.38;14.48;;;;;;;18.37;70.12;100849.69;5094541;28;20154;-61
2021/08/01 10:14:44;;;;;;;19.00;13.18;;;;;;;18.33;70.37;100854.19;5076582;28;20036;-60
2021/08/01 10:17:11;;;;;;;23.30;16.80;;;;;;;18.24;70.87;100856.94;5093933;28;20040;-60
2021/08/01 10:19:39;;;;;;;23.35;15.15;;;;;;;18.10;71.68;100843.25;5094302;28;20507;-59
2021/08/01 10:22:09;;;;;;;24.75;15.10;;;;;;;18.13;71.45;100850.09;5093974;28;20036;-59
2021/08/01 10:24:45;;;;;;;21.13;14.38;;;;;;;18.14;71.43;100841.50;5076640;28;20056;-60
2021/08/01 10:27:15;;;;;;;18.13;11.95;;;;;;;18.17;71.12;100837.28;5076473;28;20058;-59
2021/08/01 10:29:48;;;;;;;14.73;10.52;;;;;;;18.25;70.46;100837.31;5076062;28;20513;-61
2021/08/01 10:32:18;;;;;;;24.80;16.75;;;;;;;18.31;70.83;100840.75;5093862;28;20043;-61
2021/08/01 10:35:08;;;;;;;22.58;16.80;;;;;;;18.31;71.04;100841.56;5075942;28;20046;-61
2021/08/01 10:37:48;;;;;;;22.35;15.90;;;;;;;18.41;70.79;100839.63;5075829;28;20040;-59
2021/08/01 10:40:21;;;;;;;18.35;12.85;;;;;;;18.44;70.75;100834.28;5093863;28;20044;-60
2021/08/01 10:42:54;;;;;;;23.40;15.95;;;;;;;18.50;70.65;100843.25;5075990;28;20410;-60
2021/08/01 10:45:22;;;;;;;19.88;13.52;;;;;;;18.56;70.48;100841.94;5075548;28;20048;-61
2021/08/01 10:47:51;;;;;;;17.98;12.68;;;;;;;18.57;69.33;100838.06;5093283;28;20111;-60
2021/08/01 10:50:23;;;;;;;19.30;12.45;;;;;;;18.75;69.43;100844.41;5075772;28;20139;-60
2021/08/01 10:53:20;;;;;;;20.00;14.27;;;;;;;18.72;68.83;100834.81;5075418;28;20050;-61
2021/08/01 10:55:49;;;;;;;21.67;13.75;;;;;;;18.85;69.60;100835.03;5093700;28;20547;-60
2021/08/01 10:58:17;;;;;;;11.38;6.82;;;;;;;18.83;68.61;100845.56;5093121;28;20044;-60
2021/08/01 11:00:57;;;;;;;26.02;17.10;;;;;;;18.78;70.04;100842.97;5093536;28;20051;-60
2021/08/01 11:03:24;;;;;;;25.83;17.67;;;;;;;18.67;70.48;100837.75;5093655;28;20052;-59
2021/08/01 11:05:52;;;;;;;19.63;13.68;;;;;;;18.65;70.04;100834.50;5075073;28;20044;-59
2021/08/01 11:08:20;;;;;;;23.77;16.98;;;;;;;18.64;70.97;100830.13;5075029;28;20036;-60
2021/08/01 11:11:09;;;;;;;18.67;13.77;;;;;;;18.59;70.89;100835.78;5093271;28;20068;-58
2021/08/01 11:13:38;;;;;;;21.27;13.65;;;;;;;18.58;71.47;100831.41;5093273;28;20040;-59
2021/08/01 11:16:08;;;;;;;23.45;15.82;;;;;;;18.58;72.02;100834.16;5093171;28;20051;-58
2021/08/01 11:18:44;;;;;;;19.13;8.85;;;;;;;18.62;69.84;100831.56;5084314;28;20046;-59
2021/08/01 11:21:13;;;;;;;20.83;13.27;;;;;;;18.77;70.19;100835.84;4738228;28;10000143;-54
2021/08/01 11:23:46;;;;;;;18.83;14.45;;;;;;;18.63;71.46;100836.75;5090579;28;20032;-55
2021/08/01 11:26:18;;;;;;;11.93;7.45;;;;;;;18.56;70.88;100839.19;5090870;28;20147;-54
2021/08/01 11:29:04;;;;;;;10.00;5.22;;;;;;;18.61;69.09;100830.75;5090528;28;20534;-59
2021/08/01 11:31:33;;;;;;;14.02;9.20;;;;;;;18.64;71.05;100838.41;5091152;28;20055;-59